sensor_id;sensor_type;location;lat;lon;timestamp;temperature;humidity
2955;DHT22;1487;51.470;6.938;2023-04-08T00:00:37;7.30;99.90
2955;DHT22;1487;51.470;6.938;2023-04-08T00:03:04;7.40;99.90
2955;DHT22;1487;51.470;6.938;2023-04-08T00:05:31;7.30;99.90
2955;DHT22;1487;51.470;6.938;2023-04-08T00:07:59;7.30;99.90
2955;DHT22;1487;51.470;6.938;2023-04-08T00:10:25;7.30;99.90
2955;DHT22;1487;51.470;6.938;2023-04-08T00:12:52;7.20;99.90
2955;DHT22;1487;51.470;6.938;2023-04-08T00:15:20;7.20;99.90
2955;DHT22;1487;51.470;6.938;2023-04-08T00:17:47;7.10;99.90
2955;DHT22;1487;51.470;6.938;2023-04-08T00:20:13;7.10;99.90
2955;DHT22;1487;51.470;6.938;2023-04-08T00:22:40;7.10;99.90
2955;DHT22;1487;51.470;6.938;2023-04-08T00:25:09;7.10;99.90
2955;DHT22;1487;51.470;6.938;2023-04-08T00:27:35;7.20;99.90
2955;DHT22;1487;51.470;6.938;2023-04-08T00:30:03;7.20;99.90
2955;DHT22;1487;51.470;6.938;2023-04-08T00:32:30;7.20;99.90
2955;DHT22;1487;51.470;6.938;2023-04-08T00:34:57;7.20;99.90
2955;DHT22;1487;51.470;6.938;2023-04-08T00:37:24;7.20;99.90
2955;DHT22;1487;51.470;6.938;2023-04-08T00:39:50;7.30;99.90
2955;DHT22;1487;51.470;6.938;2023-04-08T00:42:20;7.30;99.90
2955;DHT22;1487;51.470;6.938;2023-04-08T00:44:46;7.30;99.90
2955;DHT22;1487;51.470;6.938;2023-04-08T00:47:14;7.30;99.90
2955;DHT22;1487;51.470;6.938;2023-04-08T00:49:41;7.30;99.90
2955;DHT22;1487;51.470;6.938;2023-04-08T00:52:08;7.30;99.90
2955;DHT22;1487;51.470;6.938;2023-04-08T00:54:35;7.40;99.90
2955;DHT22;1487;51.470;6.938;2023-04-08T00:57:03;7.40;99.90
2955;DHT22;1487;51.470;6.938;2023-04-08T00:59:32;7.40;99.90
2955;DHT22;1487;51.470;6.938;2023-04-08T01:02:07;7.40;99.90
2955;DHT22;1487;51.470;6.938;2023-04-08T01:04:43;7.40;99.90
2955;DHT22;1487;51.470;6.938;2023-04-08T01:07:17;7.40;99.90
2955;DHT22;1487;51.470;6.938;2023-04-08T01:09:46;7.50;99.90
2955;DHT22;1487;51.470;6.938;2023-04-08T01:12:22;7.50;99.90
2955;DHT22;1487;51.470;6.938;2023-04-08T01:14:56;7.50;99.90
2955;DHT22;1487;51.470;6.938;2023-04-08T01:17:25;7.50;99.90
2955;DHT22;1487;51.470;6.938;2023-04-08T01:19:53;7.50;99.90
2955;DHT22;1487;51.470;6.938;2023-04-08T01:22:26;7.50;99.90
2955;DHT22;1487;51.470;6.938;2023-04-08T01:25:00;7.50;99.90
2955;DHT22;1487;51.470;6.938;2023-04-08T01:27:30;7.50;99.90
2955;DHT22;1487;51.470;6.938;2023-04-08T01:29:58;7.50;99.90
2955;DHT22;1487;51.470;6.938;2023-04-08T01:32:26;7.40;99.90
2955;DHT22;1487;51.470;6.938;2023-04-08T01:34:54;7.40;99.90
2955;DHT22;1487;51.470;6.938;2023-04-08T01:37:23;7.40;99.90
2955;DHT22;1487;51.470;6.938;2023-04-08T01:39:51;7.50;99.90
2955;DHT22;1487;51.470;6.938;2023-04-08T01:42:20;7.50;99.90
2955;DHT22;1487;51.470;6.938;2023-04-08T01:44:50;7.50;99.90
2955;DHT22;1487;51.470;6.938;2023-04-08T01:47:18;7.60;99.90
2955;DHT22;1487;51.470;6.938;2023-04-08T01:49:45;7.50;99.90
2955;DHT22;1487;51.470;6.938;2023-04-08T01:52:14;7.50;99.90
2955;DHT22;1487;51.470;6.938;2023-04-08T01:54:42;7.50;99.90
2955;DHT22;1487;51.470;6.938;2023-04-08T01:57:11;7.40;99.90
2955;DHT22;1487;51.470;6.938;2023-04-08T01:59:41;7.20;99.90
2955;DHT22;1487;51.470;6.938;2023-04-08T02:02:10;7.00;99.90
2955;DHT22;1487;51.470;6.938;2023-04-08T02:04:37;6.90;99.90
2955;DHT22;1487;51.470;6.938;2023-04-08T02:07:04;6.90;99.90
2955;DHT22;1487;51.470;6.938;2023-04-08T02:09:31;6.80;99.90
2955;DHT22;1487;51.470;6.938;2023-04-08T02:11:58;6.70;99.90
2955;DHT22;1487;51.470;6.938;2023-04-08T02:14:27;6.70;99.90
2955;DHT22;1487;51.470;6.938;2023-04-08T02:16:57;6.60;99.90
2955;DHT22;1487;51.470;6.938;2023-04-08T02:19:29;6.50;99.90
2955;DHT22;1487;51.470;6.938;2023-04-08T02:22:04;6.40;99.90
2955;DHT22;1487;51.470;6.938;2023-04-08T02:24:31;6.40;99.90
2955;DHT22;1487;51.470;6.938;2023-04-08T02:26:59;6.40;99.90
2955;DHT22;1487;51.470;6.938;2023-04-08T02:29:29;6.30;99.90
2955;DHT22;1487;51.470;6.938;2023-04-08T02:31:57;6.20;99.90
2955;DHT22;1487;51.470;6.938;2023-04-08T02:34:24;6.20;99.90
2955;DHT22;1487;51.470;6.938;2023-04-08T02:36:53;6.10;99.90
2955;DHT22;1487;51.470;6.938;2023-04-08T02:39:19;6.10;99.90
2955;DHT22;1487;51.470;6.938;2023-04-08T02:41:46;6.00;99.90
2955;DHT22;1487;51.470;6.938;2023-04-08T02:44:13;5.90;99.90
2955;DHT22;1487;51.470;6.938;2023-04-08T02:46:40;5.80;99.90
2955;DHT22;1487;51.470;6.938;2023-04-08T02:49:07;5.70;99.90
2955;DHT22;1487;51.470;6.938;2023-04-08T02:51:33;5.70;99.90
2955;DHT22;1487;51.470;6.938;2023-04-08T02:54:01;5.70;99.90
2955;DHT22;1487;51.470;6.938;2023-04-08T02:56:28;5.70;99.90
2955;DHT22;1487;51.470;6.938;2023-04-08T02:58:55;5.70;99.90
2955;DHT22;1487;51.470;6.938;2023-04-08T03:01:22;5.70;99.90
2955;DHT22;1487;51.470;6.938;2023-04-08T03:03:49;5.70;99.90
2955;DHT22;1487;51.470;6.938;2023-04-08T03:06:16;5.60;99.90
2955;DHT22;1487;51.470;6.938;2023-04-08T03:08:42;5.60;99.90
2955;DHT22;1487;51.470;6.938;2023-04-08T03:11:11;5.60;99.90
2955;DHT22;1487;51.470;6.938;2023-04-08T03:13:37;5.60;99.90
2955;DHT22;1487;51.470;6.938;2023-04-08T03:16:05;5.70;99.90
2955;DHT22;1487;51.470;6.938;2023-04-08T03:18:32;5.70;99.90
2955;DHT22;1487;51.470;6.938;2023-04-08T03:20:59;5.70;99.90
2955;DHT22;1487;51.470;6.938;2023-04-08T03:23:27;5.80;99.90
2955;DHT22;1487;51.470;6.938;2023-04-08T03:25:54;5.80;99.90
2955;DHT22;1487;51.470;6.938;2023-04-08T03:28:22;5.80;99.90
2955;DHT22;1487;51.470;6.938;2023-04-08T03:30:49;5.80;99.90
2955;DHT22;1487;51.470;6.938;2023-04-08T03:33:16;5.80;99.90
2955;DHT22;1487;51.470;6.938;2023-04-08T03:35:42;5.80;99.90
2955;DHT22;1487;51.470;6.938;2023-04-08T03:38:09;5.90;99.90
2955;DHT22;1487;51.470;6.938;2023-04-08T03:40:36;5.90;99.90
2955;DHT22;1487;51.470;6.938;2023-04-08T03:43:03;5.90;99.90
2955;DHT22;1487;51.470;6.938;2023-04-08T03:45:31;5.90;99.90
2955;DHT22;1487;51.470;6.938;2023-04-08T03:47:58;6.00;99.90
2955;DHT22;1487;51.470;6.938;2023-04-08T03:50:25;6.10;99.90
2955;DHT22;1487;51.470;6.938;2023-04-08T03:52:51;6.10;99.90
2955;DHT22;1487;51.470;6.938;2023-04-08T03:55:18;6.10;99.90
2955;DHT22;1487;51.470;6.938;2023-04-08T03:57:45;6.00;99.90
2955;DHT22;1487;51.470;6.938;2023-04-08T04:00:12;6.00;99.90
2955;DHT22;1487;51.470;6.938;2023-04-08T04:02:41;5.90;99.90
2955;DHT22;1487;51.470;6.938;2023-04-08T04:05:08;6.00;99.90
2955;DHT22;1487;51.470;6.938;2023-04-08T04:07:35;6.00;99.90
2955;DHT22;1487;51.470;6.938;2023-04-08T04:10:01;6.10;99.90
2955;DHT22;1487;51.470;6.938;2023-04-08T04:12:28;6.10;99.90
2955;DHT22;1487;51.470;6.938;2023-04-08T04:14:55;6.20;99.90
2955;DHT22;1487;51.470;6.938;2023-04-08T04:17:22;6.20;99.90
2955;DHT22;1487;51.470;6.938;2023-04-08T04:19:50;6.30;99.90
2955;DHT22;1487;51.470;6.938;2023-04-08T04:22:17;6.20;99.90
2955;DHT22;1487;51.470;6.938;2023-04-08T04:24:46;6.20;99.90
2955;DHT22;1487;51.470;6.938;2023-04-08T04:27:13;6.20;99.90
2955;DHT22;1487;51.470;6.938;2023-04-08T04:29:41;6.20;99.90
2955;DHT22;1487;51.470;6.938;2023-04-08T04:32:08;6.10;99.90
2955;DHT22;1487;51.470;6.938;2023-04-08T04:34:35;6.10;99.90
2955;DHT22;1487;51.470;6.938;2023-04-08T04:37:03;6.10;99.90
2955;DHT22;1487;51.470;6.938;2023-04-08T04:39:30;6.10;99.90
2955;DHT22;1487;51.470;6.938;2023-04-08T04:41:56;6.20;99.90
2955;DHT22;1487;51.470;6.938;2023-04-08T04:44:23;6.20;99.90
2955;DHT22;1487;51.470;6.938;2023-04-08T04:46:50;6.20;99.90
2955;DHT22;1487;51.470;6.938;2023-04-08T04:49:17;6.10;99.90
2955;DHT22;1487;51.470;6.938;2023-04-08T04:51:44;6.10;99.90
2955;DHT22;1487;51.470;6.938;2023-04-08T04:54:12;6.10;99.90
2955;DHT22;1487;51.470;6.938;2023-04-08T04:56:38;6.00;99.90
2955;DHT22;1487;51.470;6.938;2023-04-08T04:59:06;6.10;99.90
2955;DHT22;1487;51.470;6.938;2023-04-08T05:01:33;6.20;99.90
2955;DHT22;1487;51.470;6.938;2023-04-08T05:03:59;6.30;99.90
2955;DHT22;1487;51.470;6.938;2023-04-08T05:06:26;6.30;99.90
2955;DHT22;1487;51.470;6.938;2023-04-08T05:08:53;6.30;99.90
2955;DHT22;1487;51.470;6.938;2023-04-08T05:11:21;6.30;99.90
2955;DHT22;1487;51.470;6.938;2023-04-08T05:13:48;6.30;99.90
2955;DHT22;1487;51.470;6.938;2023-04-08T05:16:15;6.20;99.90
2955;DHT22;1487;51.470;6.938;2023-04-08T05:18:42;6.20;99.90
2955;DHT22;1487;51.470;6.938;2023-04-08T05:21:09;6.20;99.90
2955;DHT22;1487;51.470;6.938;2023-04-08T05:23:36;6.20;99.90
2955;DHT22;1487;51.470;6.938;2023-04-08T05:26:06;6.20;99.90
2955;DHT22;1487;51.470;6.938;2023-04-08T05:28:34;6.20;99.90
2955;DHT22;1487;51.470;6.938;2023-04-08T05:31:01;6.20;99.90
2955;DHT22;1487;51.470;6.938;2023-04-08T05:33:27;6.30;99.90
2955;DHT22;1487;51.470;6.938;2023-04-08T05:35:54;6.30;99.90
2955;DHT22;1487;51.470;6.938;2023-04-08T05:38:21;6.20;99.90
2955;DHT22;1487;51.470;6.938;2023-04-08T05:40:48;6.20;99.90
2955;DHT22;1487;51.470;6.938;2023-04-08T05:43:15;6.30;99.90
2955;DHT22;1487;51.470;6.938;2023-04-08T05:45:44;6.30;99.90
2955;DHT22;1487;51.470;6.938;2023-04-08T05:48:11;6.40;99.90
2955;DHT22;1487;51.470;6.938;2023-04-08T05:50:37;6.30;99.90
2955;DHT22;1487;51.470;6.938;2023-04-08T05:53:04;6.40;99.90
2955;DHT22;1487;51.470;6.938;2023-04-08T05:55:31;6.50;99.90
2955;DHT22;1487;51.470;6.938;2023-04-08T05:57:58;6.60;99.90
2955;DHT22;1487;51.470;6.938;2023-04-08T06:00:25;6.50;99.90
2955;DHT22;1487;51.470;6.938;2023-04-08T06:02:53;6.60;99.90
2955;DHT22;1487;51.470;6.938;2023-04-08T06:05:20;6.70;99.90
2955;DHT22;1487;51.470;6.938;2023-04-08T06:07:46;6.60;99.90
2955;DHT22;1487;51.470;6.938;2023-04-08T06:10:13;6.60;99.90
2955;DHT22;1487;51.470;6.938;2023-04-08T06:12:40;6.60;99.90
2955;DHT22;1487;51.470;6.938;2023-04-08T06:15:08;6.70;99.90
2955;DHT22;1487;51.470;6.938;2023-04-08T06:17:35;6.70;99.90
2955;DHT22;1487;51.470;6.938;2023-04-08T06:20:06;6.80;99.90
2955;DHT22;1487;51.470;6.938;2023-04-08T06:22:33;6.80;99.90
2955;DHT22;1487;51.470;6.938;2023-04-08T06:25:00;6.90;99.90
2955;DHT22;1487;51.470;6.938;2023-04-08T06:27:27;7.00;99.90
2955;DHT22;1487;51.470;6.938;2023-04-08T06:29:54;7.10;99.90
2955;DHT22;1487;51.470;6.938;2023-04-08T06:32:21;7.20;99.90
2955;DHT22;1487;51.470;6.938;2023-04-08T06:34:48;7.20;99.90
2955;DHT22;1487;51.470;6.938;2023-04-08T06:37:16;7.20;99.90
2955;DHT22;1487;51.470;6.938;2023-04-08T06:39:43;7.10;99.90
2955;DHT22;1487;51.470;6.938;2023-04-08T06:42:10;7.20;99.90
2955;DHT22;1487;51.470;6.938;2023-04-08T06:44:37;7.30;99.90
2955;DHT22;1487;51.470;6.938;2023-04-08T06:47:03;7.30;99.90
2955;DHT22;1487;51.470;6.938;2023-04-08T06:49:30;7.40;99.90
2955;DHT22;1487;51.470;6.938;2023-04-08T06:51:57;7.40;99.90
2955;DHT22;1487;51.470;6.938;2023-04-08T06:54:25;7.50;99.90
2955;DHT22;1487;51.470;6.938;2023-04-08T06:56:52;7.40;99.90
2955;DHT22;1487;51.470;6.938;2023-04-08T06:59:19;7.50;99.90
2955;DHT22;1487;51.470;6.938;2023-04-08T07:01:45;7.60;99.90
2955;DHT22;1487;51.470;6.938;2023-04-08T07:04:12;7.70;99.90
2955;DHT22;1487;51.470;6.938;2023-04-08T07:06:39;7.70;99.90
2955;DHT22;1487;51.470;6.938;2023-04-08T07:09:08;7.80;99.90
2955;DHT22;1487;51.470;6.938;2023-04-08T07:11:36;7.80;99.90
2955;DHT22;1487;51.470;6.938;2023-04-08T07:14:03;7.80;99.90
2955;DHT22;1487;51.470;6.938;2023-04-08T07:16:30;7.80;99.90
2955;DHT22;1487;51.470;6.938;2023-04-08T07:18:56;7.90;99.90
2955;DHT22;1487;51.470;6.938;2023-04-08T07:21:23;7.80;99.90
2955;DHT22;1487;51.470;6.938;2023-04-08T07:23:50;7.80;99.90
2955;DHT22;1487;51.470;6.938;2023-04-08T07:26:17;7.70;99.90
2955;DHT22;1487;51.470;6.938;2023-04-08T07:28:45;7.60;99.90
2955;DHT22;1487;51.470;6.938;2023-04-08T07:31:13;7.60;99.90
2955;DHT22;1487;51.470;6.938;2023-04-08T07:33:40;7.70;99.90
2955;DHT22;1487;51.470;6.938;2023-04-08T07:36:08;7.60;99.90
2955;DHT22;1487;51.470;6.938;2023-04-08T07:38:35;7.70;99.90
2955;DHT22;1487;51.470;6.938;2023-04-08T07:41:02;7.70;99.90
2955;DHT22;1487;51.470;6.938;2023-04-08T07:43:30;7.60;99.90
2955;DHT22;1487;51.470;6.938;2023-04-08T07:46:03;7.60;99.90
2955;DHT22;1487;51.470;6.938;2023-04-08T07:48:30;7.50;99.90
2955;DHT22;1487;51.470;6.938;2023-04-08T07:50:58;7.40;99.90
2955;DHT22;1487;51.470;6.938;2023-04-08T07:53:28;7.60;99.90
2955;DHT22;1487;51.470;6.938;2023-04-08T07:55:54;7.70;99.90
2955;DHT22;1487;51.470;6.938;2023-04-08T07:58:21;7.90;99.90
2955;DHT22;1487;51.470;6.938;2023-04-08T08:00:49;8.10;99.90
2955;DHT22;1487;51.470;6.938;2023-04-08T08:03:17;8.20;99.90
2955;DHT22;1487;51.470;6.938;2023-04-08T08:05:44;8.30;99.90
2955;DHT22;1487;51.470;6.938;2023-04-08T08:08:11;8.50;99.90
2955;DHT22;1487;51.470;6.938;2023-04-08T08:10:37;8.70;99.90
2955;DHT22;1487;51.470;6.938;2023-04-08T08:13:05;8.80;99.90
2955;DHT22;1487;51.470;6.938;2023-04-08T08:15:32;8.80;99.90
2955;DHT22;1487;51.470;6.938;2023-04-08T08:17:59;8.80;99.90
2955;DHT22;1487;51.470;6.938;2023-04-08T08:20:27;9.00;99.90
2955;DHT22;1487;51.470;6.938;2023-04-08T08:22:54;9.10;99.90
2955;DHT22;1487;51.470;6.938;2023-04-08T08:25:21;9.30;99.90
2955;DHT22;1487;51.470;6.938;2023-04-08T08:27:47;9.40;99.90
2955;DHT22;1487;51.470;6.938;2023-04-08T08:30:15;9.60;99.90
2955;DHT22;1487;51.470;6.938;2023-04-08T08:32:44;9.70;99.90
2955;DHT22;1487;51.470;6.938;2023-04-08T08:35:11;9.90;99.90
2955;DHT22;1487;51.470;6.938;2023-04-08T08:37:39;10.00;99.90
2955;DHT22;1487;51.470;6.938;2023-04-08T08:40:08;10.00;99.90
2955;DHT22;1487;51.470;6.938;2023-04-08T08:42:34;10.10;99.90
2955;DHT22;1487;51.470;6.938;2023-04-08T08:45:02;10.20;99.90
2955;DHT22;1487;51.470;6.938;2023-04-08T08:47:30;10.30;99.90
2955;DHT22;1487;51.470;6.938;2023-04-08T08:49:57;10.40;99.90
2955;DHT22;1487;51.470;6.938;2023-04-08T08:52:24;10.10;99.90
2955;DHT22;1487;51.470;6.938;2023-04-08T08:54:57;10.10;99.90
2955;DHT22;1487;51.470;6.938;2023-04-08T08:57:24;10.20;99.90
2955;DHT22;1487;51.470;6.938;2023-04-08T08:59:52;10.50;99.90
2955;DHT22;1487;51.470;6.938;2023-04-08T09:02:25;10.60;99.90
2955;DHT22;1487;51.470;6.938;2023-04-08T09:04:57;11.20;99.90
2955;DHT22;1487;51.470;6.938;2023-04-08T09:07:27;11.50;99.90
2955;DHT22;1487;51.470;6.938;2023-04-08T09:09:54;11.90;99.90
2955;DHT22;1487;51.470;6.938;2023-04-08T09:12:24;11.90;99.90
2955;DHT22;1487;51.470;6.938;2023-04-08T09:15:02;11.80;99.90
2955;DHT22;1487;51.470;6.938;2023-04-08T09:17:34;11.80;99.90
2955;DHT22;1487;51.470;6.938;2023-04-08T09:20:08;11.70;99.90
2955;DHT22;1487;51.470;6.938;2023-04-08T09:22:53;11.80;99.90
2955;DHT22;1487;51.470;6.938;2023-04-08T09:25:24;11.80;99.90
2955;DHT22;1487;51.470;6.938;2023-04-08T09:27:52;11.70;99.90
2955;DHT22;1487;51.470;6.938;2023-04-08T09:30:22;11.70;99.90
2955;DHT22;1487;51.470;6.938;2023-04-08T09:32:50;11.80;99.90
2955;DHT22;1487;51.470;6.938;2023-04-08T09:35:17;12.00;99.90
2955;DHT22;1487;51.470;6.938;2023-04-08T09:37:45;12.30;99.90
2955;DHT22;1487;51.470;6.938;2023-04-08T09:40:12;12.80;99.90
2955;DHT22;1487;51.470;6.938;2023-04-08T09:42:43;13.60;99.90
2955;DHT22;1487;51.470;6.938;2023-04-08T09:45:12;15.90;99.90
2955;DHT22;1487;51.470;6.938;2023-04-08T09:47:47;17.20;99.90
2955;DHT22;1487;51.470;6.938;2023-04-08T09:50:19;17.70;99.90
2955;DHT22;1487;51.470;6.938;2023-04-08T09:52:53;17.00;99.90
2955;DHT22;1487;51.470;6.938;2023-04-08T09:55:22;16.30;99.90
2955;DHT22;1487;51.470;6.938;2023-04-08T09:57:56;15.80;99.90
2955;DHT22;1487;51.470;6.938;2023-04-08T10:00:31;15.40;99.90
2955;DHT22;1487;51.470;6.938;2023-04-08T10:03:05;14.90;99.90
2955;DHT22;1487;51.470;6.938;2023-04-08T10:05:37;14.70;99.90
2955;DHT22;1487;51.470;6.938;2023-04-08T10:08:04;14.50;99.90
2955;DHT22;1487;51.470;6.938;2023-04-08T10:10:33;14.20;99.90
2955;DHT22;1487;51.470;6.938;2023-04-08T10:13:00;13.80;99.90
2955;DHT22;1487;51.470;6.938;2023-04-08T10:15:29;13.60;99.90
2955;DHT22;1487;51.470;6.938;2023-04-08T10:18:30;13.30;99.90
2955;DHT22;1487;51.470;6.938;2023-04-08T10:20:57;12.90;99.90
2955;DHT22;1487;51.470;6.938;2023-04-08T10:23:55;12.90;99.90
2955;DHT22;1487;51.470;6.938;2023-04-08T10:26:30;12.80;99.90
2955;DHT22;1487;51.470;6.938;2023-04-08T10:32:30;12.10;99.90
2955;DHT22;1487;51.470;6.938;2023-04-08T10:35:06;12.00;99.90
2955;DHT22;1487;51.470;6.938;2023-04-08T10:37:32;12.00;99.90
2955;DHT22;1487;51.470;6.938;2023-04-08T10:39:59;11.60;99.90
2955;DHT22;1487;51.470;6.938;2023-04-08T10:42:27;11.50;99.90
2955;DHT22;1487;51.470;6.938;2023-04-08T10:44:54;11.30;99.90
2955;DHT22;1487;51.470;6.938;2023-04-08T10:47:25;11.20;99.90
2955;DHT22;1487;51.470;6.938;2023-04-08T10:49:54;11.10;99.90
2955;DHT22;1487;51.470;6.938;2023-04-08T10:52:21;11.00;99.90
2955;DHT22;1487;51.470;6.938;2023-04-08T10:54:48;10.80;99.90
2955;DHT22;1487;51.470;6.938;2023-04-08T10:57:15;10.80;99.90
2955;DHT22;1487;51.470;6.938;2023-04-08T10:59:48;10.90;99.90
2955;DHT22;1487;51.470;6.938;2023-04-08T11:02:15;10.90;99.90
2955;DHT22;1487;51.470;6.938;2023-04-08T11:04:42;11.20;99.90
2955;DHT22;1487;51.470;6.938;2023-04-08T11:07:11;11.60;99.90
2955;DHT22;1487;51.470;6.938;2023-04-08T11:09:38;11.90;99.90
2955;DHT22;1487;51.470;6.938;2023-04-08T11:12:07;12.20;99.90
2955;DHT22;1487;51.470;6.938;2023-04-08T11:14:34;12.40;99.90
2955;DHT22;1487;51.470;6.938;2023-04-08T11:17:02;12.50;99.90
2955;DHT22;1487;51.470;6.938;2023-04-08T11:19:30;12.40;99.90
2955;DHT22;1487;51.470;6.938;2023-04-08T11:21:57;12.20;99.90
2955;DHT22;1487;51.470;6.938;2023-04-08T11:24:26;12.10;99.90
2955;DHT22;1487;51.470;6.938;2023-04-08T11:26:53;12.20;99.90
2955;DHT22;1487;51.470;6.938;2023-04-08T11:29:20;12.20;99.90
2955;DHT22;1487;51.470;6.938;2023-04-08T11:31:47;12.10;99.90
2955;DHT22;1487;51.470;6.938;2023-04-08T11:34:21;12.10;99.90
2955;DHT22;1487;51.470;6.938;2023-04-08T11:36:49;12.40;99.90
2955;DHT22;1487;51.470;6.938;2023-04-08T11:39:16;12.80;99.90
2955;DHT22;1487;51.470;6.938;2023-04-08T11:41:44;13.20;99.90
2955;DHT22;1487;51.470;6.938;2023-04-08T11:44:11;13.50;99.90
2955;DHT22;1487;51.470;6.938;2023-04-08T11:46:38;13.70;99.90
2955;DHT22;1487;51.470;6.938;2023-04-08T11:49:07;13.80;99.90
2955;DHT22;1487;51.470;6.938;2023-04-08T11:51:53;13.90;99.90
2955;DHT22;1487;51.470;6.938;2023-04-08T11:54:26;14.10;99.90
2955;DHT22;1487;51.470;6.938;2023-04-08T11:56:55;14.20;99.90
2955;DHT22;1487;51.470;6.938;2023-04-08T11:59:22;14.50;99.90
2955;DHT22;1487;51.470;6.938;2023-04-08T12:01:50;14.90;99.90
2955;DHT22;1487;51.470;6.938;2023-04-08T12:04:17;15.10;99.90
2955;DHT22;1487;51.470;6.938;2023-04-08T12:06:44;14.80;99.90
2955;DHT22;1487;51.470;6.938;2023-04-08T12:09:11;14.60;99.90
2955;DHT22;1487;51.470;6.938;2023-04-08T12:11:38;14.50;99.90
2955;DHT22;1487;51.470;6.938;2023-04-08T12:14:06;14.70;99.90
2955;DHT22;1487;51.470;6.938;2023-04-08T12:16:34;14.50;99.90
2955;DHT22;1487;51.470;6.938;2023-04-08T12:19:00;14.70;99.90
2955;DHT22;1487;51.470;6.938;2023-04-08T12:21:27;14.60;99.90
2955;DHT22;1487;51.470;6.938;2023-04-08T12:23:54;14.70;99.90
2955;DHT22;1487;51.470;6.938;2023-04-08T12:26:21;14.90;99.90
2955;DHT22;1487;51.470;6.938;2023-04-08T12:28:48;14.90;99.90
2955;DHT22;1487;51.470;6.938;2023-04-08T12:31:17;14.80;99.90
2955;DHT22;1487;51.470;6.938;2023-04-08T12:33:43;14.70;99.90
2955;DHT22;1487;51.470;6.938;2023-04-08T12:36:10;14.60;99.90
2955;DHT22;1487;51.470;6.938;2023-04-08T12:38:37;14.50;99.90
2955;DHT22;1487;51.470;6.938;2023-04-08T12:41:04;14.60;99.90
2955;DHT22;1487;51.470;6.938;2023-04-08T12:43:32;14.70;99.90
2955;DHT22;1487;51.470;6.938;2023-04-08T12:46:00;14.70;99.90
2955;DHT22;1487;51.470;6.938;2023-04-08T12:48:29;14.80;99.90
2955;DHT22;1487;51.470;6.938;2023-04-08T12:50:55;14.60;99.90
2955;DHT22;1487;51.470;6.938;2023-04-08T12:53:23;14.50;99.90
2955;DHT22;1487;51.470;6.938;2023-04-08T12:55:50;14.30;99.90
2955;DHT22;1487;51.470;6.938;2023-04-08T12:58:21;14.30;99.90
2955;DHT22;1487;51.470;6.938;2023-04-08T13:00:48;14.00;99.90
2955;DHT22;1487;51.470;6.938;2023-04-08T13:03:15;13.90;99.90
2955;DHT22;1487;51.470;6.938;2023-04-08T13:05:43;13.60;99.90
2955;DHT22;1487;51.470;6.938;2023-04-08T13:08:10;13.30;99.90
2955;DHT22;1487;51.470;6.938;2023-04-08T13:10:37;13.30;99.90
2955;DHT22;1487;51.470;6.938;2023-04-08T13:13:04;13.40;99.90
2955;DHT22;1487;51.470;6.938;2023-04-08T13:15:31;13.40;99.90
2955;DHT22;1487;51.470;6.938;2023-04-08T13:17:58;13.60;99.90
2955;DHT22;1487;51.470;6.938;2023-04-08T13:20:25;13.30;99.90
2955;DHT22;1487;51.470;6.938;2023-04-08T13:22:54;13.20;99.90
2955;DHT22;1487;51.470;6.938;2023-04-08T13:25:20;13.10;99.90
2955;DHT22;1487;51.470;6.938;2023-04-08T13:27:47;13.10;99.90
2955;DHT22;1487;51.470;6.938;2023-04-08T13:30:14;13.10;99.90
2955;DHT22;1487;51.470;6.938;2023-04-08T13:32:41;13.10;99.90
2955;DHT22;1487;51.470;6.938;2023-04-08T13:35:08;13.30;99.90
2955;DHT22;1487;51.470;6.938;2023-04-08T13:37:35;13.50;99.90
2955;DHT22;1487;51.470;6.938;2023-04-08T13:40:04;13.70;99.90
2955;DHT22;1487;51.470;6.938;2023-04-08T13:42:33;13.90;99.90
2955;DHT22;1487;51.470;6.938;2023-04-08T13:45:00;14.00;99.90
2955;DHT22;1487;51.470;6.938;2023-04-08T13:47:27;14.00;99.90
2955;DHT22;1487;51.470;6.938;2023-04-08T13:49:53;14.20;99.90
2955;DHT22;1487;51.470;6.938;2023-04-08T13:52:20;14.40;99.90
2955;DHT22;1487;51.470;6.938;2023-04-08T13:54:47;14.40;99.90
2955;DHT22;1487;51.470;6.938;2023-04-08T13:57:15;14.50;99.90
2955;DHT22;1487;51.470;6.938;2023-04-08T13:59:42;14.50;99.90
2955;DHT22;1487;51.470;6.938;2023-04-08T14:02:09;14.30;99.90
2955;DHT22;1487;51.470;6.938;2023-04-08T14:04:36;14.00;99.90
2955;DHT22;1487;51.470;6.938;2023-04-08T14:07:02;14.20;99.90
2955;DHT22;1487;51.470;6.938;2023-04-08T14:09:29;14.40;99.90
2955;DHT22;1487;51.470;6.938;2023-04-08T14:11:56;14.30;99.90
2955;DHT22;1487;51.470;6.938;2023-04-08T14:14:24;14.10;99.90
2955;DHT22;1487;51.470;6.938;2023-04-08T14:16:51;14.20;99.90
2955;DHT22;1487;51.470;6.938;2023-04-08T14:19:18;14.30;99.90
2955;DHT22;1487;51.470;6.938;2023-04-08T14:21:45;14.20;99.90
2955;DHT22;1487;51.470;6.938;2023-04-08T14:24:12;14.10;99.90
2955;DHT22;1487;51.470;6.938;2023-04-08T14:26:38;13.90;99.90
2955;DHT22;1487;51.470;6.938;2023-04-08T14:29:06;13.90;99.90
2955;DHT22;1487;51.470;6.938;2023-04-08T14:31:34;13.90;99.90
2955;DHT22;1487;51.470;6.938;2023-04-08T14:34:01;13.80;99.90
2955;DHT22;1487;51.470;6.938;2023-04-08T14:36:28;13.70;99.90
2955;DHT22;1487;51.470;6.938;2023-04-08T14:38:55;13.50;99.90
2955;DHT22;1487;51.470;6.938;2023-04-08T14:41:22;13.30;99.90
2955;DHT22;1487;51.470;6.938;2023-04-08T14:43:50;13.00;99.90
2955;DHT22;1487;51.470;6.938;2023-04-08T14:46:17;12.90;99.90
2955;DHT22;1487;51.470;6.938;2023-04-08T14:48:46;12.70;99.90
2955;DHT22;1487;51.470;6.938;2023-04-08T14:51:12;12.70;99.90
2955;DHT22;1487;51.470;6.938;2023-04-08T14:53:39;12.90;99.90
2955;DHT22;1487;51.470;6.938;2023-04-08T14:56:07;12.80;99.90
2955;DHT22;1487;51.470;6.938;2023-04-08T14:58:34;12.80;99.90
2955;DHT22;1487;51.470;6.938;2023-04-08T15:01:01;12.90;99.90
2955;DHT22;1487;51.470;6.938;2023-04-08T15:03:27;12.70;99.90
2955;DHT22;1487;51.470;6.938;2023-04-08T15:05:56;12.60;99.90
2955;DHT22;1487;51.470;6.938;2023-04-08T15:08:23;12.70;99.90
2955;DHT22;1487;51.470;6.938;2023-04-08T15:10:50;12.70;99.90
2955;DHT22;1487;51.470;6.938;2023-04-08T15:13:16;12.60;99.90
2955;DHT22;1487;51.470;6.938;2023-04-08T15:15:43;12.30;99.90
2955;DHT22;1487;51.470;6.938;2023-04-08T15:18:10;12.20;99.90
2955;DHT22;1487;51.470;6.938;2023-04-08T15:20:37;12.10;99.90
2955;DHT22;1487;51.470;6.938;2023-04-08T15:23:05;12.10;99.90
2955;DHT22;1487;51.470;6.938;2023-04-08T15:25:32;12.00;99.90
2955;DHT22;1487;51.470;6.938;2023-04-08T15:27:59;12.00;99.90
2955;DHT22;1487;51.470;6.938;2023-04-08T15:30:27;12.00;99.90
2955;DHT22;1487;51.470;6.938;2023-04-08T15:32:59;11.90;99.90
2955;DHT22;1487;51.470;6.938;2023-04-08T15:35:26;11.90;99.90
2955;DHT22;1487;51.470;6.938;2023-04-08T15:37:53;11.90;99.90
2955;DHT22;1487;51.470;6.938;2023-04-08T15:40:22;11.90;99.90
2955;DHT22;1487;51.470;6.938;2023-04-08T15:42:50;11.90;99.90
2955;DHT22;1487;51.470;6.938;2023-04-08T15:45:17;11.90;99.90
2955;DHT22;1487;51.470;6.938;2023-04-08T15:47:44;12.00;99.90
2955;DHT22;1487;51.470;6.938;2023-04-08T15:50:11;12.10;99.90
2955;DHT22;1487;51.470;6.938;2023-04-08T15:52:39;12.20;99.90
2955;DHT22;1487;51.470;6.938;2023-04-08T15:55:07;12.30;99.90
2955;DHT22;1487;51.470;6.938;2023-04-08T15:57:35;12.30;99.90
2955;DHT22;1487;51.470;6.938;2023-04-08T16:00:06;12.30;99.90
2955;DHT22;1487;51.470;6.938;2023-04-08T16:02:32;12.20;99.90
2955;DHT22;1487;51.470;6.938;2023-04-08T16:04:59;12.20;99.90
2955;DHT22;1487;51.470;6.938;2023-04-08T16:07:26;12.10;99.90
2955;DHT22;1487;51.470;6.938;2023-04-08T16:09:53;12.00;99.90
2955;DHT22;1487;51.470;6.938;2023-04-08T16:12:20;11.90;99.90
2955;DHT22;1487;51.470;6.938;2023-04-08T16:14:48;11.80;99.90
2955;DHT22;1487;51.470;6.938;2023-04-08T16:17:15;11.70;99.90